sensor_id;sensor_type;location;lat;lon;timestamp;P1;durP1;ratioP1;P2;durP2;ratioP2
17193;SDS011;8713;48.388;10.928;2024-01-30T05:37:16;6.85;;;3.88;;
17193;SDS011;8713;48.388;10.928;2024-01-30T05:38:47;8.38;;;3.72;;
17193;SDS011;8713;48.388;10.928;2024-01-30T05:40:16;6.55;;;3.60;;
17193;SDS011;8713;48.388;10.928;2024-01-30T05:41:46;6.15;;;3.90;;
17193;SDS011;8713;48.388;10.928;2024-01-30T05:43:15;6.50;;;3.72;;
17193;SDS011;8713;48.388;10.928;2024-01-30T05:44:30;12.35;;;4.40;;
17193;SDS011;8713;48.388;10.928;2024-01-30T05:45:58;7.65;;;3.90;;
17193;SDS011;8713;48.388;10.928;2024-01-30T05:47:26;7.35;;;4.25;;
17193;SDS011;8713;48.388;10.928;2024-01-30T05:48:55;11.30;;;4.30;;
17193;SDS011;8713;48.388;10.928;2024-01-30T05:50:24;7.53;;;3.85;;
17193;SDS011;8713;48.388;10.928;2024-01-30T05:51:54;8.63;;;4.32;;
17193;SDS011;8713;48.388;10.928;2024-01-30T05:53:22;7.93;;;4.88;;
17193;SDS011;8713;48.388;10.928;2024-01-30T05:54:50;7.20;;;4.20;;
17193;SDS011;8713;48.388;10.928;2024-01-30T05:56:18;8.07;;;4.22;;
17193;SDS011;8713;48.388;10.928;2024-01-30T05:57:47;6.60;;;3.85;;
17193;SDS011;8713;48.388;10.928;2024-01-30T05:59:15;5.07;;;3.55;;
17193;SDS011;8713;48.388;10.928;2024-01-30T06:00:44;5.88;;;3.78;;
17193;SDS011;8713;48.388;10.928;2024-01-30T06:02:12;6.40;;;3.80;;
17193;SDS011;8713;48.388;10.928;2024-01-30T06:03:41;6.20;;;3.90;;
17193;SDS011;8713;48.388;10.928;2024-01-30T06:05:12;7.03;;;3.75;;
17193;SDS011;8713;48.388;10.928;2024-01-30T06:06:42;8.55;;;3.67;;
17193;SDS011;8713;48.388;10.928;2024-01-30T06:08:12;8.25;;;4.32;;
17193;SDS011;8713;48.388;10.928;2024-01-30T06:09:41;9.38;;;4.60;;
17193;SDS011;8713;48.388;10.928;2024-01-30T06:11:11;9.60;;;4.80;;
17193;SDS011;8713;48.388;10.928;2024-01-30T06:12:41;8.35;;;4.90;;
17193;SDS011;8713;48.388;10.928;2024-01-30T06:14:11;8.07;;;5.20;;
17193;SDS011;8713;48.388;10.928;2024-01-30T06:15:41;7.55;;;4.20;;
17193;SDS011;8713;48.388;10.928;2024-01-30T06:17:10;6.25;;;3.92;;
17193;SDS011;8713;48.388;10.928;2024-01-30T06:18:41;7.70;;;4.22;;
17193;SDS011;8713;48.388;10.928;2024-01-30T06:20:10;6.05;;;4.35;;
17193;SDS011;8713;48.388;10.928;2024-01-30T06:21:40;6.68;;;4.35;;
17193;SDS011;8713;48.388;10.928;2024-01-30T06:23:10;7.22;;;4.18;;
17193;SDS011;8713;48.388;10.928;2024-01-30T06:24:42;7.35;;;3.97;;
17193;SDS011;8713;48.388;10.928;2024-01-30T06:26:14;6.32;;;3.95;;
17193;SDS011;8713;48.388;10.928;2024-01-30T06:27:43;6.45;;;4.22;;
17193;SDS011;8713;48.388;10.928;2024-01-30T06:29:12;9.95;;;5.25;;
17193;SDS011;8713;48.388;10.928;2024-01-30T06:30:43;10.00;;;5.60;;
17193;SDS011;8713;48.388;10.928;2024-01-30T06:32:13;9.68;;;5.25;;
17193;SDS011;8713;48.388;10.928;2024-01-30T06:33:42;8.75;;;4.53;;
17193;SDS011;8713;48.388;10.928;2024-01-30T06:35:12;9.05;;;4.32;;
17193;SDS011;8713;48.388;10.928;2024-01-30T06:36:41;7.55;;;3.88;;
17193;SDS011;8713;48.388;10.928;2024-01-30T06:38:11;6.53;;;3.95;;
17193;SDS011;8713;48.388;10.928;2024-01-30T06:39:42;7.95;;;4.07;;
17193;SDS011;8713;48.388;10.928;2024-01-30T06:41:12;6.38;;;4.07;;
17193;SDS011;8713;48.388;10.928;2024-01-30T06:42:41;6.28;;;3.60;;
17193;SDS011;8713;48.388;10.928;2024-01-30T06:44:11;8.60;;;3.88;;
17193;SDS011;8713;48.388;10.928;2024-01-30T06:45:41;10.00;;;5.13;;
17193;SDS011;8713;48.388;10.928;2024-01-30T06:47:11;15.57;;;6.75;;
17193;SDS011;8713;48.388;10.928;2024-01-30T06:48:41;17.48;;;8.05;;
17193;SDS011;8713;48.388;10.928;2024-01-30T06:50:13;15.57;;;7.68;;
17193;SDS011;8713;48.388;10.928;2024-01-30T06:51:43;16.15;;;6.72;;
17193;SDS011;8713;48.388;10.928;2024-01-30T06:53:12;12.32;;;5.35;;
17193;SDS011;8713;48.388;10.928;2024-01-30T06:54:42;9.65;;;5.22;;
17193;SDS011;8713;48.388;10.928;2024-01-30T06:56:11;8.95;;;4.93;;
17193;SDS011;8713;48.388;10.928;2024-01-30T06:57:41;11.27;;;4.57;;
17193;SDS011;8713;48.388;10.928;2024-01-30T06:59:10;8.60;;;4.50;;
17193;SDS011;8713;48.388;10.928;2024-01-30T07:00:40;9.10;;;4.28;;
17193;SDS011;8713;48.388;10.928;2024-01-30T07:02:10;7.75;;;4.47;;
17193;SDS011;8713;48.388;10.928;2024-01-30T07:03:40;7.03;;;4.60;;
17193;SDS011;8713;48.388;10.928;2024-01-30T07:05:10;8.10;;;4.93;;
17193;SDS011;8713;48.388;10.928;2024-01-30T07:06:39;8.73;;;4.82;;
17193;SDS011;8713;48.388;10.928;2024-01-30T07:08:09;7.55;;;4.25;;
17193;SDS011;8713;48.388;10.928;2024-01-30T07:09:38;7.80;;;4.20;;
17193;SDS011;8713;48.388;10.928;2024-01-30T07:11:08;7.03;;;4.20;;
17193;SDS011;8713;48.388;10.928;2024-01-30T07:12:37;9.85;;;4.35;;
17193;SDS011;8713;48.388;10.928;2024-01-30T07:14:09;7.60;;;4.10;;
17193;SDS011;8713;48.388;10.928;2024-01-30T07:15:39;6.60;;;3.53;;
17193;SDS011;8713;48.388;10.928;2024-01-30T07:17:08;7.93;;;3.85;;
17193;SDS011;8713;48.388;10.928;2024-01-30T07:18:38;7.10;;;3.95;;
17193;SDS011;8713;48.388;10.928;2024-01-30T07:20:07;8.18;;;3.78;;
17193;SDS011;8713;48.388;10.928;2024-01-30T07:21:38;5.53;;;3.65;;
17193;SDS011;8713;48.388;10.928;2024-01-30T07:23:09;7.57;;;3.17;;
17193;SDS011;8713;48.388;10.928;2024-01-30T07:24:43;6.22;;;3.40;;
17193;SDS011;8713;48.388;10.928;2024-01-30T07:26:17;7.90;;;3.40;;
17193;SDS011;8713;48.388;10.928;2024-01-30T07:27:46;6.45;;;3.92;;
17193;SDS011;8713;48.388;10.928;2024-01-30T07:29:16;6.90;;;3.65;;
17193;SDS011;8713;48.388;10.928;2024-01-30T07:30:45;5.32;;;3.17;;
17193;SDS011;8713;48.388;10.928;2024-01-30T07:32:16;5.30;;;3.33;;
17193;SDS011;8713;48.388;10.928;2024-01-30T07:33:46;8.20;;;3.85;;
17193;SDS011;8713;48.388;10.928;2024-01-30T07:35:15;9.43;;;3.72;;
17193;SDS011;8713;48.388;10.928;2024-01-30T07:36:45;8.20;;;4.18;;
17193;SDS011;8713;48.388;10.928;2024-01-30T07:38:16;6.00;;;3.95;;
17193;SDS011;8713;48.388;10.928;2024-01-30T07:39:45;8.20;;;3.80;;
17193;SDS011;8713;48.388;10.928;2024-01-30T07:41:15;7.47;;;3.75;;
17193;SDS011;8713;48.388;10.928;2024-01-30T07:42:45;8.88;;;4.15;;
17193;SDS011;8713;48.388;10.928;2024-01-30T07:44:14;8.60;;;4.35;;
17193;SDS011;8713;48.388;10.928;2024-01-30T07:45:44;6.13;;;4.28;;
17193;SDS011;8713;48.388;10.928;2024-01-30T07:47:14;8.63;;;4.72;;
17193;SDS011;8713;48.388;10.928;2024-01-30T07:48:44;10.18;;;5.00;;
17193;SDS011;8713;48.388;10.928;2024-01-30T07:50:13;9.20;;;5.55;;
17193;SDS011;8713;48.388;10.928;2024-01-30T07:51:43;8.95;;;5.00;;
17193;SDS011;8713;48.388;10.928;2024-01-30T07:53:14;9.60;;;4.82;;
17193;SDS011;8713;48.388;10.928;2024-01-30T07:54:44;10.52;;;4.38;;
17193;SDS011;8713;48.388;10.928;2024-01-30T07:56:13;8.40;;;4.22;;
17193;SDS011;8713;48.388;10.928;2024-01-30T07:57:43;8.57;;;3.88;;
17193;SDS011;8713;48.388;10.928;2024-01-30T07:59:12;8.77;;;3.78;;
17193;SDS011;8713;48.388;10.928;2024-01-30T08:00:42;7.05;;;3.95;;
17193;SDS011;8713;48.388;10.928;2024-01-30T08:02:12;8.85;;;4.45;;
17193;SDS011;8713;48.388;10.928;2024-01-30T08:03:42;9.70;;;4.18;;
17193;SDS011;8713;48.388;10.928;2024-01-30T08:05:12;7.57;;;4.43;;
17193;SDS011;8713;48.388;10.928;2024-01-30T08:06:43;7.47;;;3.58;;
17193;SDS011;8713;48.388;10.928;2024-01-30T08:08:13;10.07;;;4.43;;
17193;SDS011;8713;48.388;10.928;2024-01-30T08:09:42;6.88;;;3.88;;
17193;SDS011;8713;48.388;10.928;2024-01-30T08:11:12;7.80;;;4.22;;
17193;SDS011;8713;48.388;10.928;2024-01-30T08:12:43;5.95;;;3.22;;
17193;SDS011;8713;48.388;10.928;2024-01-30T08:14:12;6.90;;;3.35;;
17193;SDS011;8713;48.388;10.928;2024-01-30T08:15:42;7.20;;;3.92;;
17193;SDS011;8713;48.388;10.928;2024-01-30T08:17:12;6.68;;;4.28;;
17193;SDS011;8713;48.388;10.928;2024-01-30T08:18:42;9.32;;;4.72;;
17193;SDS011;8713;48.388;10.928;2024-01-30T08:20:11;8.00;;;4.40;;
17193;SDS011;8713;48.388;10.928;2024-01-30T08:21:41;9.80;;;4.22;;
17193;SDS011;8713;48.388;10.928;2024-01-30T08:23:10;7.53;;;4.00;;
17193;SDS011;8713;48.388;10.928;2024-01-30T08:24:40;9.52;;;4.25;;
17193;SDS011;8713;48.388;10.928;2024-01-30T08:26:10;6.38;;;3.75;;
17193;SDS011;8713;48.388;10.928;2024-01-30T08:27:39;7.38;;;3.80;;
17193;SDS011;8713;48.388;10.928;2024-01-30T08:29:09;9.27;;;4.22;;
17193;SDS011;8713;48.388;10.928;2024-01-30T08:30:39;7.82;;;3.88;;
17193;SDS011;8713;48.388;10.928;2024-01-30T08:32:09;7.68;;;4.30;;
17193;SDS011;8713;48.388;10.928;2024-01-30T08:33:38;7.80;;;3.90;;
17193;SDS011;8713;48.388;10.928;2024-01-30T08:35:08;7.97;;;3.83;;
17193;SDS011;8713;48.388;10.928;2024-01-30T08:36:38;6.28;;;3.97;;
17193;SDS011;8713;48.388;10.928;2024-01-30T08:38:07;8.07;;;3.53;;
17193;SDS011;8713;48.388;10.928;2024-01-30T08:39:37;4.78;;;3.28;;
17193;SDS011;8713;48.388;10.928;2024-01-30T08:41:07;4.75;;;3.10;;
17193;SDS011;8713;48.388;10.928;2024-01-30T08:42:37;6.40;;;3.17;;
17193;SDS011;8713;48.388;10.928;2024-01-30T08:44:06;5.90;;;3.47;;
17193;SDS011;8713;48.388;10.928;2024-01-30T08:45:36;6.63;;;3.33;;
17193;SDS011;8713;48.388;10.928;2024-01-30T08:47:06;8.63;;;4.07;;
17193;SDS011;8713;48.388;10.928;2024-01-30T08:48:35;5.70;;;3.45;;
17193;SDS011;8713;48.388;10.928;2024-01-30T08:50:05;6.65;;;3.20;;
17193;SDS011;8713;48.388;10.928;2024-01-30T08:51:35;6.22;;;3.30;;
17193;SDS011;8713;48.388;10.928;2024-01-30T08:53:05;7.28;;;2.92;;
17193;SDS011;8713;48.388;10.928;2024-01-30T08:54:35;6.05;;;3.67;;
17193;SDS011;8713;48.388;10.928;2024-01-30T08:56:05;4.80;;;3.08;;
17193;SDS011;8713;48.388;10.928;2024-01-30T08:57:36;6.05;;;3.42;;
17193;SDS011;8713;48.388;10.928;2024-01-30T08:59:05;8.52;;;3.60;;
17193;SDS011;8713;48.388;10.928;2024-01-30T09:00:34;7.32;;;3.30;;
17193;SDS011;8713;48.388;10.928;2024-01-30T09:01:44;5.93;;;2.67;;
17193;SDS011;8713;48.388;10.928;2024-01-30T09:02:55;5.68;;;3.00;;
17193;SDS011;8713;48.388;10.928;2024-01-30T09:04:23;4.18;;;2.88;;
17193;SDS011;8713;48.388;10.928;2024-01-30T09:05:39;5.72;;;3.13;;
17193;SDS011;8713;48.388;10.928;2024-01-30T09:07:09;5.38;;;3.10;;
17193;SDS011;8713;48.388;10.928;2024-01-30T09:08:37;6.82;;;2.95;;
17193;SDS011;8713;48.388;10.928;2024-01-30T09:10:06;8.63;;;3.70;;
17193;SDS011;8713;48.388;10.928;2024-01-30T09:11:35;5.07;;;3.40;;
17193;SDS011;8713;48.388;10.928;2024-01-30T09:12:56;4.88;;;3.20;;
17193;SDS011;8713;48.388;10.928;2024-01-30T09:14:25;6.68;;;3.17;;
17193;SDS011;8713;48.388;10.928;2024-01-30T09:15:53;4.68;;;3.00;;
17193;SDS011;8713;48.388;10.928;2024-01-30T09:17:21;6.20;;;3.55;;
17193;SDS011;8713;48.388;10.928;2024-01-30T09:18:50;7.63;;;3.15;;
17193;SDS011;8713;48.388;10.928;2024-01-30T09:20:18;4.10;;;3.10;;
17193;SDS011;8713;48.388;10.928;2024-01-30T09:21:48;4.57;;;3.05;;
17193;SDS011;8713;48.388;10.928;2024-01-30T09:22:57;7.63;;;3.38;;
17193;SDS011;8713;48.388;10.928;2024-01-30T09:24:26;5.13;;;3.00;;
17193;SDS011;8713;48.388;10.928;2024-01-30T09:25:54;5.90;;;3.53;;
17193;SDS011;8713;48.388;10.928;2024-01-30T09:27:23;5.45;;;3.50;;
17193;SDS011;8713;48.388;10.928;2024-01-30T09:28:51;6.20;;;2.70;;
17193;SDS011;8713;48.388;10.928;2024-01-30T09:30:20;6.03;;;3.35;;
17193;SDS011;8713;48.388;10.928;2024-01-30T09:31:48;5.63;;;3.25;;
17193;SDS011;8713;48.388;10.928;2024-01-30T09:32:57;6.28;;;3.00;;
17193;SDS011;8713;48.388;10.928;2024-01-30T09:34:25;6.60;;;3.22;;
17193;SDS011;8713;48.388;10.928;2024-01-30T09:35:53;6.70;;;2.97;;
17193;SDS011;8713;48.388;10.928;2024-01-30T09:37:23;6.78;;;2.80;;
17193;SDS011;8713;48.388;10.928;2024-01-30T09:38:51;5.78;;;2.85;;
17193;SDS011;8713;48.388;10.928;2024-01-30T09:40:20;4.53;;;2.83;;
17193;SDS011;8713;48.388;10.928;2024-01-30T09:41:49;7.50;;;3.70;;
17193;SDS011;8713;48.388;10.928;2024-01-30T09:43:31;6.22;;;2.72;;
17193;SDS011;8713;48.388;10.928;2024-01-30T09:44:58;5.28;;;3.13;;
17193;SDS011;8713;48.388;10.928;2024-01-30T09:46:27;6.20;;;3.00;;
17193;SDS011;8713;48.388;10.928;2024-01-30T09:47:55;7.65;;;2.85;;
17193;SDS011;8713;48.388;10.928;2024-01-30T09:49:23;4.72;;;2.72;;
17193;SDS011;8713;48.388;10.928;2024-01-30T09:50:52;5.60;;;3.13;;
17193;SDS011;8713;48.388;10.928;2024-01-30T09:52:20;4.70;;;3.10;;
17193;SDS011;8713;48.388;10.928;2024-01-30T09:53:45;7.60;;;3.45;;
17193;SDS011;8713;48.388;10.928;2024-01-30T09:55:14;6.47;;;3.38;;
17193;SDS011;8713;48.388;10.928;2024-01-30T09:56:42;4.93;;;3.22;;
17193;SDS011;8713;48.388;10.928;2024-01-30T09:58:11;6.30;;;3.70;;
17193;SDS011;8713;48.388;10.928;2024-01-30T09:59:41;7.60;;;4.18;;
17193;SDS011;8713;48.388;10.928;2024-01-30T10:01:10;6.38;;;3.72;;
17193;SDS011;8713;48.388;10.928;2024-01-30T10:02:39;5.90;;;3.70;;
17193;SDS011;8713;48.388;10.928;2024-01-30T10:03:50;5.80;;;3.33;;
17193;SDS011;8713;48.388;10.928;2024-01-30T10:05:20;4.65;;;3.03;;
17193;SDS011;8713;48.388;10.928;2024-01-30T10:06:50;6.15;;;3.22;;
17193;SDS011;8713;48.388;10.928;2024-01-30T10:08:19;4.53;;;2.95;;
17193;SDS011;8713;48.388;10.928;2024-01-30T10:09:47;9.18;;;3.75;;
17193;SDS011;8713;48.388;10.928;2024-01-30T10:11:16;9.27;;;3.38;;
17193;SDS011;8713;48.388;10.928;2024-01-30T10:12:45;7.20;;;3.40;;
17193;SDS011;8713;48.388;10.928;2024-01-30T10:14:14;5.93;;;3.47;;
17193;SDS011;8713;48.388;10.928;2024-01-30T10:15:43;4.50;;;2.85;;
17193;SDS011;8713;48.388;10.928;2024-01-30T10:17:12;5.90;;;2.92;;
17193;SDS011;8713;48.388;10.928;2024-01-30T10:18:41;6.13;;;3.20;;
17193;SDS011;8713;48.388;10.928;2024-01-30T10:20:09;4.07;;;2.85;;
17193;SDS011;8713;48.388;10.928;2024-01-30T10:21:38;4.30;;;2.83;;
17193;SDS011;8713;48.388;10.928;2024-01-30T10:23:06;4.50;;;2.80;;
17193;SDS011;8713;48.388;10.928;2024-01-30T10:24:36;6.15;;;2.50;;
17193;SDS011;8713;48.388;10.928;2024-01-30T10:26:04;5.40;;;2.80;;
17193;SDS011;8713;48.388;10.928;2024-01-30T10:27:32;5.82;;;2.72;;
17193;SDS011;8713;48.388;10.928;2024-01-30T10:29:01;5.53;;;3.08;;
17193;SDS011;8713;48.388;10.928;2024-01-30T10:30:30;7.82;;;3.00;;
17193;SDS011;8713;48.388;10.928;2024-01-30T10:31:59;4.13;;;2.53;;
17193;SDS011;8713;48.388;10.928;2024-01-30T10:33:28;5.97;;;3.00;;
17193;SDS011;8713;48.388;10.928;2024-01-30T10:34:57;5.40;;;2.83;;
17193;SDS011;8713;48.388;10.928;2024-01-30T10:36:28;5.32;;;2.92;;
17193;SDS011;8713;48.388;10.928;2024-01-30T10:37:59;6.05;;;3.08;;
17193;SDS011;8713;48.388;10.928;2024-01-30T10:39:28;7.13;;;3.00;;
17193;SDS011;8713;48.388;10.928;2024-01-30T10:40:59;5.43;;;2.92;;
17193;SDS011;8713;48.388;10.928;2024-01-30T10:42:29;8.85;;;2.97;;
17193;SDS011;8713;48.388;10.928;2024-01-30T10:44:03;5.78;;;3.10;;
17193;SDS011;8713;48.388;10.928;2024-01-30T10:45:38;4.30;;;2.63;;
17193;SDS011;8713;48.388;10.928;2024-01-30T10:47:10;6.80;;;2.63;;
17193;SDS011;8713;48.388;10.928;2024-01-30T10:48:42;6.38;;;3.08;;
17193;SDS011;8713;48.388;10.928;2024-01-30T10:50:12;6.47;;;2.97;;
17193;SDS011;8713;48.388;10.928;2024-01-30T10:51:41;5.10;;;2.97;;
17193;SDS011;8713;48.388;10.928;2024-01-30T10:53:10;5.97;;;2.78;;
17193;SDS011;8713;48.388;10.928;2024-01-30T10:54:38;6.85;;;3.22;;
17193;SDS011;8713;48.388;10.928;2024-01-30T10:56:08;6.47;;;3.30;;
17193;SDS011;8713;48.388;10.928;2024-01-30T10:57:37;4.70;;;2.92;;
17193;SDS011;8713;48.388;10.928;2024-01-30T10:59:05;6.50;;;3.35;;
17193;SDS011;8713;48.388;10.928;2024-01-30T11:00:34;5.30;;;3.58;;
17193;SDS011;8713;48.388;10.928;2024-01-30T11:02:02;5.38;;;2.85;;
17193;SDS011;8713;48.388;10.928;2024-01-30T11:03:31;5.78;;;3.28;;
17193;SDS011;8713;48.388;10.928;2024-01-30T11:05:02;5.13;;;2.95;;
17193;SDS011;8713;48.388;10.928;2024-01-30T11:06:32;4.75;;;3.20;;
17193;SDS011;8713;48.388;10.928;2024-01-30T11:08:44;7.82;;;3.08;;
17193;SDS011;8713;48.388;10.928;2024-01-30T11:11:29;8.40;;;3.40;;
17193;SDS011;8713;48.388;10.928;2024-01-30T11:12:57;9.25;;;3.67;;
17193;SDS011;8713;48.388;10.928;2024-01-30T11:14:26;8.55;;;3.88;;
17193;SDS011;8713;48.388;10.928;2024-01-30T11:15:55;7.10;;;3.85;;
17193;SDS011;8713;48.388;10.928;2024-01-30T11:17:27;15.85;;;6.68;;
17193;SDS011;8713;48.388;10.928;2024-01-30T11:18:59;8.55;;;4.22;;
17193;SDS011;8713;48.388;10.928;2024-01-30T11:20:32;6.65;;;3.17;;
17193;SDS011;8713;48.388;10.928;2024-01-30T11:22:01;5.25;;;2.78;;
17193;SDS011;8713;48.388;10.928;2024-01-30T11:23:30;6.03;;;2.90;;
17193;SDS011;8713;48.388;10.928;2024-01-30T11:24:58;5.63;;;2.72;;
17193;SDS011;8713;48.388;10.928;2024-01-30T11:26:30;4.97;;;2.85;;
17193;SDS011;8713;48.388;10.928;2024-01-30T11:27:59;4.95;;;2.58;;
17193;SDS011;8713;48.388;10.928;2024-01-30T11:29:27;5.00;;;2.38;;
17193;SDS011;8713;48.388;10.928;2024-01-30T11:31:02;5.57;;;2.47;;
17193;SDS011;8713;48.388;10.928;2024-01-30T11:32:34;5.38;;;2.17;;
17193;SDS011;8713;48.388;10.928;2024-01-30T11:34:03;5.10;;;2.30;;
17193;SDS011;8713;48.388;10.928;2024-01-30T11:35:13;4.20;;;2.42;;
17193;SDS011;8713;48.388;10.928;2024-01-30T11:36:25;5.32;;;2.50;;
17193;SDS011;8713;48.388;10.928;2024-01-30T11:37:36;5.00;;;2.88;;
17193;SDS011;8713;48.388;10.928;2024-01-30T11:38:46;7.47;;;2.60;;
17193;SDS011;8713;48.388;10.928;2024-01-30T11:39:56;4.55;;;2.78;;
17193;SDS011;8713;48.388;10.928;2024-01-30T11:41:06;4.88;;;2.97;;
17193;SDS011;8713;48.388;10.928;2024-01-30T11:42:34;5.70;;;3.13;;
17193;SDS011;8713;48.388;10.928;2024-01-30T11:44:04;10.25;;;3.10;;
17193;SDS011;8713;48.388;10.928;2024-01-30T11:45:33;7.18;;;3.13;;
17193;SDS011;8713;48.388;10.928;2024-01-30T11:47:02;7.65;;;3.20;;
17193;SDS011;8713;48.388;10.928;2024-01-30T11:48:31;6.65;;;3.13;;
17193;SDS011;8713;48.388;10.928;2024-01-30T11:49:59;5.47;;;3.03;;
17193;SDS011;8713;48.388;10.928;2024-01-30T11:51:27;6.85;;;3.30;;
17193;SDS011;8713;48.388;10.928;2024-01-30T11:53:01;4.88;;;2.72;;
17193;SDS011;8713;48.388;10.928;2024-01-30T11:54:30;4.72;;;3.05;;
17193;SDS011;8713;48.388;10.928;2024-01-30T11:55:59;3.65;;;2.17;;
17193;SDS011;8713;48.388;10.928;2024-01-30T11:57:27;3.92;;;2.63;;
17193;SDS011;8713;48.388;10.928;2024-01-30T11:58:56;4.57;;;2.70;;
17193;SDS011;8713;48.388;10.928;2024-01-30T12:00:24;4.57;;;2.85;;
17193;SDS011;8713;48.388;10.928;2024-01-30T12:01:53;7.28;;;2.60;;
17193;SDS011;8713;48.388;10.928;2024-01-30T12:03:21;4.88;;;2.58;;
17193;SDS011;8713;48.388;10.928;2024-01-30T12:04:50;6.65;;;3.00;;
17193;SDS011;8713;48.388;10.928;2024-01-30T12:06:18;6.50;;;3.05;;
17193;SDS011;8713;48.388;10.928;2024-01-30T12:07:46;5.35;;;2.47;;
17193;SDS011;8713;48.388;10.928;2024-01-30T12:09:14;6.25;;;2.70;;
17193;SDS011;8713;48.388;10.928;2024-01-30T12:10:44;6.00;;;2.70;;
17193;SDS011;8713;48.388;10.928;2024-01-30T12:12:13;3.97;;;2.25;;
17193;SDS011;8713;48.388;10.928;2024-01-30T12:13:43;4.50;;;2.25;;
17193;SDS011;8713;48.388;10.928;2024-01-30T12:15:13;5.55;;;2.40;;
17193;SDS011;8713;48.388;10.928;2024-01-30T12:16:43;5.05;;;2.53;;
17193;SDS011;8713;48.388;10.928;2024-01-30T12:18:13;4.50;;;2.03;;
17193;SDS011;8713;48.388;10.928;2024-01-30T12:19:42;5.88;;;2.70;;
17193;SDS011;8713;48.388;10.928;2024-01-30T12:21:12;3.53;;;2.05;;
17193;SDS011;8713;48.388;10.928;2024-01-30T12:22:42;4.30;;;2.05;;
17193;SDS011;8713;48.388;10.928;2024-01-30T12:24:13;3.95;;;2.50;;
17193;SDS011;8713;48.388;10.928;2024-01-30T12:25:42;4.75;;;2.25;;
17193;SDS011;8713;48.388;10.928;2024-01-30T12:27:14;5.80;;;2.92;;
17193;SDS011;8713;48.388;10.928;2024-01-30T12:28:48;6.35;;;2.95;;
17193;SDS011;8713;48.388;10.928;2024-01-30T12:30:22;4.63;;;2.58;;
17193;SDS011;8713;48.388;10.928;2024-01-30T12:31:54;7.07;;;2.78;;
17193;SDS011;8713;48.388;10.928;2024-01-30T12:33:26;7.22;;;2.40;;
17193;SDS011;8713;48.388;10.928;2024-01-30T12:34:56;5.32;;;2.20;;
17193;SDS011;8713;48.388;10.928;2024-01-30T12:36:26;4.97;;;2.30;;
17193;SDS011;8713;48.388;10.928;2024-01-30T12:37:55;6.53;;;2.50;;
17193;SDS011;8713;48.388;10.928;2024-01-30T12:39:25;3.58;;;2.08;;
17193;SDS011;8713;48.388;10.928;2024-01-30T12:40:54;3.70;;;2.30;;
17193;SDS011;8713;48.388;10.928;2024-01-30T12:42:14;5.97;;;2.70;;
17193;SDS011;8713;48.388;10.928;2024-01-30T12:43:26;4.28;;;2.30;;
17193;SDS011;8713;48.388;10.928;2024-01-30T12:44:56;5.80;;;2.60;;
17193;SDS011;8713;48.388;10.928;2024-01-30T12:46:27;6.20;;;2.72;;
17193;SDS011;8713;48.388;10.928;2024-01-30T12:47:37;4.50;;;2.50;;
17193;SDS011;8713;48.388;10.928;2024-01-30T12:48:47;4.93;;;2.90;;
17193;SDS011;8713;48.388;10.928;2024-01-30T12:49:56;6.25;;;2.90;;
17193;SDS011;8713;48.388;10.928;2024-01-30T12:51:05;6.20;;;3.03;;
17193;SDS011;8713;48.388;10.928;2024-01-30T12:52:16;6.28;;;3.20;;
17193;SDS011;8713;48.388;10.928;2024-01-30T12:53:44;5.68;;;2.72;;
17193;SDS011;8713;48.388;10.928;2024-01-30T12:55:14;5.40;;;2.63;;
17193;SDS011;8713;48.388;10.928;2024-01-30T12:56:42;6.93;;;2.47;;
17193;SDS011;8713;48.388;10.928;2024-01-30T12:58:10;7.88;;;2.90;;
17193;SDS011;8713;48.388;10.928;2024-01-30T12:59:39;4.97;;;2.78;;
17193;SDS011;8713;48.388;10.928;2024-01-30T13:01:07;7.68;;;2.78;;
17193;SDS011;8713;48.388;10.928;2024-01-30T13:02:31;8.23;;;2.72;;
17193;SDS011;8713;48.388;10.928;2024-01-30T13:04:04;8.32;;;3.05;;
17193;SDS011;8713;48.388;10.928;2024-01-30T13:05:32;5.60;;;2.80;;
17193;SDS011;8713;48.388;10.928;2024-01-30T13:07:00;6.18;;;2.67;;
17193;SDS011;8713;48.388;10.928;2024-01-30T13:08:28;8.18;;;3.28;;
17193;SDS011;8713;48.388;10.928;2024-01-30T13:09:56;5.97;;;2.92;;
17193;SDS011;8713;48.388;10.928;2024-01-30T13:11:30;4.18;;;2.80;;
17193;SDS011;8713;48.388;10.928;2024-01-30T13:12:40;5.82;;;3.15;;
17193;SDS011;8713;48.388;10.928;2024-01-30T13:14:08;6.80;;;2.97;;
17193;SDS011;8713;48.388;10.928;2024-01-30T13:15:36;5.75;;;2.83;;
17193;SDS011;8713;48.388;10.928;2024-01-30T13:17:06;4.45;;;2.47;;
17193;SDS011;8713;48.388;10.928;2024-01-30T13:18:34;6.30;;;2.80;;
17193;SDS011;8713;48.388;10.928;2024-01-30T13:20:03;5.10;;;3.05;;
17193;SDS011;8713;48.388;10.928;2024-01-30T13:21:32;5.78;;;2.85;;
17193;SDS011;8713;48.388;10.928;2024-01-30T13:22:40;5.65;;;2.88;;
17193;SDS011;8713;48.388;10.928;2024-01-30T13:24:09;5.15;;;3.05;;
17193;SDS011;8713;48.388;10.928;2024-01-30T13:25:37;6.30;;;3.10;;
17193;SDS011;8713;48.388;10.928;2024-01-30T13:27:07;7.47;;;3.20;;
17193;SDS011;8713;48.388;10.928;2024-01-30T13:28:36;5.30;;;2.72;;
17193;SDS011;8713;48.388;10.928;2024-01-30T13:30:06;5.03;;;3.00;;
17193;SDS011;8713;48.388;10.928;2024-01-30T13:31:17;8.25;;;3.33;;
17193;SDS011;8713;48.388;10.928;2024-01-30T13:32:27;7.78;;;3.33;;
17193;SDS011;8713;48.388;10.928;2024-01-30T13:33:36;7.63;;;3.33;;
17193;SDS011;8713;48.388;10.928;2024-01-30T13:34:45;5.53;;;3.13;;
17193;SDS011;8713;48.388;10.928;2024-01-30T13:35:55;7.57;;;2.85;;
17193;SDS011;8713;48.388;10.928;2024-01-30T13:37:04;5.93;;;3.53;;
17193;SDS011;8713;48.388;10.928;2024-01-30T13:38:14;5.75;;;3.00;;
17193;SDS011;8713;48.388;10.928;2024-01-30T13:39:43;6.65;;;3.10;;
17193;SDS011;8713;48.388;10.928;2024-01-30T13:41:11;7.07;;;3.22;;
17193;SDS011;8713;48.388;10.928;2024-01-30T13:42:40;4.88;;;2.95;;
17193;SDS011;8713;48.388;10.928;2024-01-30T13:44:08;6.00;;;3.05;;
17193;SDS011;8713;48.388;10.928;2024-01-30T13:45:36;7.32;;;2.65;;
17193;SDS011;8713;48.388;10.928;2024-01-30T13:47:05;5.15;;;2.90;;
17193;SDS011;8713;48.388;10.928;2024-01-30T13:48:33;5.75;;;3.05;;
17193;SDS011;8713;48.388;10.928;2024-01-30T13:50:02;6.45;;;3.13;;
17193;SDS011;8713;48.388;10.928;2024-01-30T13:51:30;5.07;;;2.60;;
17193;SDS011;8713;48.388;10.928;2024-01-30T13:52:58;6.78;;;3.30;;
17193;SDS011;8713;48.388;10.928;2024-01-30T13:54:27;5.07;;;2.80;;
17193;SDS011;8713;48.388;10.928;2024-01-30T13:55:56;5.75;;;2.70;;
17193;SDS011;8713;48.388;10.928;2024-01-30T13:57:24;6.32;;;3.10;;
17193;SDS011;8713;48.388;10.928;2024-01-30T13:58:52;4.63;;;2.60;;
17193;SDS011;8713;48.388;10.928;2024-01-30T14:00:20;8.15;;;3.10;;
17193;SDS011;8713;48.388;10.928;2024-01-30T14:01:50;4.35;;;2.60;;
17193;SDS011;8713;48.388;10.928;2024-01-30T14:03:19;6.00;;;2.92;;
17193;SDS011;8713;48.388;10.928;2024-01-30T14:04:47;5.30;;;2.88;;
17193;SDS011;8713;48.388;10.928;2024-01-30T14:06:16;9.30;;;3.05;;
17193;SDS011;8713;48.388;10.928;2024-01-30T14:07:44;8.23;;;2.80;;
17193;SDS011;8713;48.388;10.928;2024-01-30T14:09:12;5.65;;;2.55;;
17193;SDS011;8713;48.388;10.928;2024-01-30T14:10:42;6.25;;;2.88;;
17193;SDS011;8713;48.388;10.928;2024-01-30T14:12:10;7.50;;;3.10;;
17193;SDS011;8713;48.388;10.928;2024-01-30T14:13:38;7.60;;;2.97;;
17193;SDS011;8713;48.388;10.928;2024-01-30T14:15:07;5.25;;;2.75;;
17193;SDS011;8713;48.388;10.928;2024-01-30T14:16:34;5.30;;;2.50;;
17193;SDS011;8713;48.388;10.928;2024-01-30T14:18:02;5.40;;;3.13;;
17193;SDS011;8713;48.388;10.928;2024-01-30T14:19:30;5.95;;;2.90;;
17193;SDS011;8713;48.388;10.928;2024-01-30T14:20:58;6.07;;;2.50;;
17193;SDS011;8713;48.388;10.928;2024-01-30T14:22:26;6.72;;;3.30;;
17193;SDS011;8713;48.388;10.928;2024-01-30T14:23:54;6.30;;;3.25;;
17193;SDS011;8713;48.388;10.928;2024-01-30T14:25:22;7.38;;;3.42;;
17193;SDS011;8713;48.388;10.928;2024-01-30T14:26:34;6.13;;;3.35;;
17193;SDS011;8713;48.388;10.928;2024-01-30T14:28:02;8.52;;;3.47;;